createdAt,value
2022-10-23T00:00:42.738Z,80.75
2022-10-23T00:03:45.883Z,80.67
2022-10-23T00:06:49.828Z,80.77
2022-10-23T00:09:53.992Z,81.42
2022-10-23T00:12:56.656Z,81.21
2022-10-23T00:15:59.520Z,80.85
2022-10-23T00:19:02.148Z,81.04
2022-10-23T00:22:04.830Z,80.47
2022-10-23T00:25:10.999Z,81.13
2022-10-23T00:28:13.683Z,81.71
2022-10-23T00:31:16.873Z,81.13
2022-10-23T00:34:19.758Z,81.23
2022-10-23T00:37:22.429Z,81.70
2022-10-23T00:40:26.349Z,81.41
2022-10-23T00:43:32.065Z,81.38
2022-10-23T00:46:36.426Z,81.81
2022-10-23T00:49:41.958Z,81.88
2022-10-23T00:52:49.267Z,82.04
2022-10-23T00:55:57.559Z,82.30
2022-10-23T00:59:00.285Z,82.04
2022-10-23T01:02:02.957Z,82.06
2022-10-23T01:05:06.288Z,81.85
2022-10-23T01:08:17.754Z,82.25
2022-10-23T01:11:28.586Z,82.27
2022-10-23T01:14:38.782Z,82.26
2022-10-23T01:17:46.388Z,82.23
2022-10-23T01:20:54.670Z,81.81
2022-10-23T01:24:20.473Z,82.46
2022-10-23T01:27:27.948Z,82.28
2022-10-23T01:30:32.334Z,82.38
2022-10-23T01:33:40.319Z,82.22
2022-10-23T01:36:46.301Z,82.37
2022-10-23T01:39:53.719Z,82.18
2022-10-23T01:43:03.311Z,82.42
2022-10-23T01:46:10.430Z,81.88
2022-10-23T01:49:15.044Z,82.02
2022-10-23T01:52:19.348Z,81.75
2022-10-23T01:55:23.204Z,81.54
2022-10-23T01:58:30.855Z,82.05
2022-10-23T02:01:34.965Z,82.24
2022-10-23T02:04:41.029Z,82.38
2022-10-23T02:07:44.230Z,81.30
2022-10-23T02:10:53.664Z,81.80
2022-10-23T02:14:02.867Z,81.88
2022-10-23T02:17:16.071Z,81.97
2022-10-23T02:20:24.599Z,81.80
2022-10-23T02:23:33.755Z,81.78
2022-10-23T02:26:41.471Z,81.82
2022-10-23T02:29:49.475Z,81.92
2022-10-23T02:32:55.633Z,81.90
2022-10-23T02:35:58.313Z,81.69
2022-10-23T02:39:01.037Z,81.68
2022-10-23T02:42:09.727Z,81.85
2022-10-23T02:45:22.709Z,81.11
2022-10-23T02:48:33.982Z,81.27
2022-10-23T02:51:45.308Z,81.48
2022-10-23T02:55:08.158Z,81.01
2022-10-23T02:58:19.626Z,81.24
2022-10-23T03:01:28.911Z,81.15
2022-10-23T03:04:33.115Z,81.13
2022-10-23T03:07:36.791Z,80.79
2022-10-23T03:10:40.070Z,80.60
2022-10-23T03:13:43.031Z,80.76
2022-10-23T03:16:47.016Z,80.52
2022-10-23T03:19:49.687Z,80.30
2022-10-23T03:22:52.292Z,80.39
2022-10-23T03:25:56.510Z,79.89
2022-10-23T03:28:59.041Z,80.35
2022-10-23T03:32:03.055Z,80.42
2022-10-23T03:35:06.655Z,80.32
2022-10-23T03:38:09.216Z,80.02
2022-10-23T03:41:11.928Z,79.84
2022-10-23T03:44:14.488Z,80.11
2022-10-23T03:47:19.452Z,80.17
2022-10-23T03:50:21.999Z,79.69
2022-10-23T03:53:24.568Z,79.69
2022-10-23T03:56:27.412Z,79.51
2022-10-23T03:59:30.011Z,79.57
2022-10-23T04:02:34.261Z,80.05
2022-10-23T04:05:37.775Z,79.66
2022-10-23T04:08:40.361Z,79.42
2022-10-23T04:11:43.066Z,79.42
2022-10-23T04:14:45.633Z,78.99
2022-10-23T04:17:49.668Z,79.00
2022-10-23T04:20:52.583Z,78.49
2022-10-23T04:23:55.177Z,78.71
2022-10-23T04:26:57.888Z,79.17
2022-10-23T04:30:00.418Z,78.81
2022-10-23T04:33:04.589Z,78.58
2022-10-23T04:36:08.081Z,78.81
2022-10-23T04:39:10.860Z,78.98
2022-10-23T04:42:13.495Z,79.31
2022-10-23T04:45:16.167Z,79.14
2022-10-23T04:48:20.218Z,78.88
2022-10-23T04:51:22.812Z,78.92
2022-10-23T04:54:25.492Z,78.64
2022-10-23T04:57:28.178Z,78.31
2022-10-23T05:00:30.778Z,78.71
2022-10-23T05:03:34.890Z,78.14
2022-10-23T05:06:37.445Z,78.11
2022-10-23T05:09:40.118Z,78.40
2022-10-23T05:12:42.761Z,78.26
2022-10-23T05:15:45.351Z,78.35
2022-10-23T05:18:49.975Z,78.16
2022-10-23T05:21:55.931Z,78.83
2022-10-23T05:24:58.713Z,78.08
2022-10-23T05:28:01.266Z,78.39
2022-10-23T05:31:06.081Z,78.45
2022-10-23T05:34:13.344Z,78.24
2022-10-23T05:37:17.588Z,78.67
2022-10-23T05:40:20.701Z,79.16
2022-10-23T05:43:23.289Z,78.32
2022-10-23T05:46:27.893Z,77.97
2022-10-23T05:49:31.957Z,78.74
2022-10-23T05:52:34.497Z,78.81
2022-10-23T05:55:37.225Z,78.87
2022-10-23T05:58:39.787Z,78.50
2022-10-23T06:01:42.612Z,78.68
2022-10-23T06:04:46.579Z,77.99
2022-10-23T06:07:49.258Z,78.48
2022-10-23T06:10:51.983Z,78.88
2022-10-23T06:13:54.711Z,78.29
2022-10-23T06:16:57.478Z,78.69
2022-10-23T06:20:02.527Z,77.96
2022-10-23T06:23:05.349Z,78.32
2022-10-23T06:26:10.658Z,78.38
2022-10-23T06:29:13.226Z,77.75
2022-10-23T06:32:15.793Z,77.88
2022-10-23T06:35:19.698Z,77.78
2022-10-23T06:38:22.615Z,78.47
2022-10-23T06:41:25.272Z,77.71
2022-10-23T06:44:27.982Z,77.70
2022-10-23T06:47:30.534Z,77.82
2022-10-23T06:50:34.522Z,76.68
2022-10-23T06:53:37.946Z,76.64
2022-10-23T06:56:56.805Z,76.89
2022-10-23T06:59:59.476Z,76.13
2022-10-23T07:03:02.047Z,77.07
2022-10-23T07:06:08.303Z,77.42
2022-10-23T07:09:10.920Z,77.41
2022-10-23T07:12:13.474Z,78.24
2022-10-23T07:15:16.693Z,77.80
2022-10-23T07:18:19.523Z,78.02
2022-10-23T07:21:23.574Z,77.03
2022-10-23T07:24:26.412Z,76.86
2022-10-23T07:27:28.951Z,76.94
2022-10-23T07:30:31.789Z,76.78
2022-10-23T07:33:34.630Z,77.88
2022-10-23T07:36:38.715Z,78.17
2022-10-23T07:39:41.483Z,78.21
2022-10-23T07:42:44.214Z,77.95
2022-10-23T07:45:48.436Z,78.03
2022-10-23T07:48:51.109Z,77.22
2022-10-23T07:51:55.102Z,78.73
2022-10-23T07:54:57.796Z,78.12
2022-10-23T07:58:00.469Z,78.13
2022-10-23T08:01:05.194Z,77.87
2022-10-23T08:04:07.919Z,77.55
2022-10-23T08:07:11.842Z,76.90
2022-10-23T08:10:14.418Z,78.50
2022-10-23T08:13:17.358Z,77.02
2022-10-23T08:16:19.930Z,77.38
2022-10-23T08:19:22.710Z,76.70
2022-10-23T08:22:26.613Z,76.02
2022-10-23T08:25:29.473Z,74.26
2022-10-23T08:28:33.124Z,74.53
2022-10-23T08:31:35.824Z,76.37
2022-10-23T08:34:38.562Z,73.94
2022-10-23T08:37:42.605Z,73.96
2022-10-23T08:40:47.063Z,73.11
2022-10-23T08:43:55.425Z,72.77
2022-10-23T08:47:04.505Z,71.44
2022-10-23T08:50:18.095Z,72.17
2022-10-23T08:53:29.571Z,73.35
2022-10-23T08:56:35.514Z,72.75
2022-10-23T08:59:44.874Z,71.75
2022-10-23T09:02:49.718Z,72.28
2022-10-23T09:06:05.873Z,71.77
2022-10-23T09:09:26.007Z,71.87
2022-10-23T09:12:31.033Z,71.13
2022-10-23T09:15:40.905Z,69.92
2022-10-23T09:18:44.234Z,70.26
2022-10-23T09:21:50.304Z,70.40
2022-10-23T09:24:54.356Z,69.53
2022-10-23T09:28:04.293Z,67.76
2022-10-23T09:31:08.537Z,67.39
2022-10-23T09:34:20.780Z,67.31
2022-10-23T09:37:25.863Z,67.66
2022-10-23T09:40:37.180Z,64.06
2022-10-23T09:43:39.928Z,63.54
2022-10-23T09:46:44.917Z,63.25
2022-10-23T09:49:49.599Z,61.18
2022-10-23T09:52:55.541Z,58.79
2022-10-23T09:56:02.544Z,57.61
2022-10-23T09:59:21.861Z,56.06
2022-10-23T10:02:29.539Z,55.76
2022-10-23T10:05:34.835Z,54.20
2022-10-23T10:08:44.327Z,55.80
2022-10-23T10:11:53.756Z,53.83
2022-10-23T10:15:07.123Z,53.89
2022-10-23T10:18:17.017Z,52.59
2022-10-23T10:21:25.889Z,50.70
2022-10-23T10:24:33.321Z,52.00
2022-10-23T10:27:46.756Z,49.03
2022-10-23T10:31:01.368Z,50.43
2022-10-23T10:34:13.355Z,51.41
2022-10-23T10:37:26.396Z,50.55
2022-10-23T10:40:34.556Z,49.95
2022-10-23T10:43:47.806Z,50.35
2022-10-23T10:46:57.827Z,49.43
2022-10-23T10:50:16.178Z,48.32
2022-10-23T10:53:24.759Z,48.69
2022-10-23T10:56:30.791Z,48.81
2022-10-23T10:59:39.216Z,50.37
2022-10-23T11:02:47.172Z,51.38
2022-10-23T11:05:51.152Z,52.28
2022-10-23T11:09:03.973Z,53.55
2022-10-23T11:12:20.355Z,53.72
2022-10-23T11:15:29.646Z,54.35
2022-10-23T11:18:33.542Z,53.00
2022-10-23T11:21:42.434Z,52.64
2022-10-23T11:25:08.946Z,52.19
2022-10-23T11:28:33.752Z,52.65
2022-10-23T11:31:44.787Z,52.89
2022-10-23T11:35:03.533Z,52.31
2022-10-23T11:38:17.325Z,52.73
2022-10-23T11:41:25.591Z,51.07
2022-10-23T11:44:41.899Z,52.03
2022-10-23T11:47:45.802Z,52.90
2022-10-23T11:50:54.873Z,52.46
2022-10-23T11:54:08.921Z,51.68
2022-10-23T11:57:14.041Z,51.95
2022-10-23T12:00:21.961Z,52.85
2022-10-23T12:03:31.528Z,51.27
2022-10-23T12:06:40.403Z,52.41
2022-10-23T12:09:45.923Z,51.30
2022-10-23T12:12:57.031Z,51.30
2022-10-23T12:16:00.968Z,51.14
2022-10-23T12:19:20.701Z,52.17
2022-10-23T12:22:29.274Z,53.09
2022-10-23T12:25:41.299Z,52.25
2022-10-23T12:28:51.107Z,51.62
2022-10-23T12:31:59.849Z,52.93
2022-10-23T12:35:20.600Z,52.94
2022-10-23T12:38:25.336Z,54.21
2022-10-23T12:41:29.853Z,53.79
2022-10-23T12:44:32.486Z,54.28
2022-10-23T12:47:35.177Z,55.72
2022-10-23T12:50:39.101Z,56.03
2022-10-23T12:53:41.773Z,55.91
2022-10-23T12:56:45.189Z,56.16
2022-10-23T12:59:47.801Z,56.06
2022-10-23T13:02:59.264Z,56.41
2022-10-23T13:06:04.633Z,56.42
2022-10-23T13:09:14.173Z,56.08
2022-10-23T13:12:22.412Z,56.50
2022-10-23T13:15:26.844Z,56.21
2022-10-23T13:18:29.412Z,57.20
2022-10-23T13:21:33.793Z,57.40
2022-10-23T13:24:36.386Z,56.90
2022-10-23T13:27:38.969Z,57.25
2022-10-23T13:30:43.494Z,57.32
2022-10-23T13:33:47.501Z,56.76
2022-10-23T13:37:00.827Z,57.27
2022-10-23T13:40:05.389Z,57.74
2022-10-23T13:43:18.936Z,56.63
2022-10-23T13:46:24.389Z,57.01
2022-10-23T13:49:27.059Z,56.92
2022-10-23T13:52:30.995Z,57.89
2022-10-23T13:55:34.120Z,57.60
2022-10-23T13:58:36.846Z,58.71
2022-10-23T14:01:39.805Z,57.97
2022-10-23T14:04:42.481Z,58.46
2022-10-23T14:07:46.713Z,57.87
2022-10-23T14:10:49.638Z,58.35
2022-10-23T14:13:52.854Z,59.01
2022-10-23T14:16:55.540Z,59.48
2022-10-23T14:19:58.081Z,59.24
2022-10-23T14:23:02.093Z,60.06
2022-10-23T14:26:05.038Z,60.20
2022-10-23T14:29:10.291Z,60.17
2022-10-23T14:32:18.846Z,60.76
2022-10-23T14:35:21.524Z,61.13
2022-10-23T14:38:25.777Z,61.24
2022-10-23T14:41:28.682Z,61.75
2022-10-23T14:44:31.441Z,61.46
2022-10-23T14:47:34.271Z,62.45
2022-10-23T14:50:38.584Z,62.32
2022-10-23T14:53:42.622Z,62.08
2022-10-23T14:56:45.206Z,62.39
2022-10-23T14:59:47.858Z,62.01
2022-10-23T15:02:50.533Z,62.65
2022-10-23T15:05:53.391Z,62.71
2022-10-23T15:08:57.922Z,62.90
2022-10-23T15:12:00.598Z,63.62
2022-10-23T15:15:03.302Z,62.99
2022-10-23T15:18:06.226Z,62.97
2022-10-23T15:21:09.382Z,63.72
2022-10-23T15:24:13.395Z,63.70
2022-10-23T15:27:16.091Z,63.93
2022-10-23T15:30:19.315Z,64.40
2022-10-23T15:33:22.726Z,64.33
2022-10-23T15:36:25.421Z,64.55
2022-10-23T15:39:35.638Z,65.14
2022-10-23T15:42:38.234Z,65.19
2022-10-23T15:45:41.137Z,65.16
2022-10-23T15:48:43.708Z,65.42
2022-10-23T15:51:46.671Z,65.75
2022-10-23T15:54:50.822Z,65.40
2022-10-23T15:57:53.550Z,66.71
2022-10-23T16:00:56.323Z,66.71
2022-10-23T16:03:58.900Z,66.75
2022-10-23T16:07:01.494Z,67.12
2022-10-23T16:10:06.331Z,67.05
2022-10-23T16:13:09.289Z,67.02
2022-10-23T16:16:12.806Z,66.95
2022-10-23T16:19:15.402Z,67.15
2022-10-23T16:22:18.540Z,66.53
2022-10-23T16:25:22.577Z,67.00
2022-10-23T16:28:25.233Z,66.99
2022-10-23T16:31:29.732Z,66.65
2022-10-23T16:34:32.497Z,66.11
2022-10-23T16:37:35.276Z,66.61
2022-10-23T16:40:39.614Z,66.46
2022-10-23T16:43:42.155Z,66.72
2022-10-23T16:46:44.836Z,66.48
2022-10-23T16:49:47.409Z,67.06
2022-10-23T16:52:53.277Z,67.25
2022-10-23T16:55:59.727Z,67.24
2022-10-23T16:59:02.536Z,68.04
2022-10-23T17:02:05.589Z,68.00
2022-10-23T17:05:08.869Z,67.57
2022-10-23T17:08:11.413Z,67.60
2022-10-23T17:11:17.348Z,68.21
2022-10-23T17:14:21.078Z,67.73
2022-10-23T17:17:23.760Z,68.12
2022-10-23T17:20:26.447Z,68.37
2022-10-23T17:23:29.451Z,68.75
2022-10-23T17:26:34.112Z,68.85
2022-10-23T17:29:37.095Z,68.10
2022-10-23T17:32:39.885Z,67.27
2022-10-23T17:35:44.546Z,68.43
2022-10-23T17:38:47.357Z,68.36
2022-10-23T17:41:51.988Z,67.94
2022-10-23T17:44:54.705Z,68.32
2022-10-23T17:47:57.567Z,69.07
2022-10-23T17:51:06.078Z,69.58
2022-10-23T17:54:13.227Z,69.03
2022-10-23T17:57:17.197Z,68.38
2022-10-23T18:00:19.958Z,68.21
2022-10-23T18:03:22.673Z,68.02
2022-10-23T18:06:29.626Z,68.74
2022-10-23T18:09:32.467Z,68.01
2022-10-23T18:12:36.591Z,68.22
2022-10-23T18:15:39.662Z,68.41
2022-10-23T18:18:44.010Z,68.53
2022-10-23T18:21:47.612Z,68.79
2022-10-23T18:24:50.347Z,68.76
2022-10-23T18:27:56.366Z,68.83
2022-10-23T18:31:02.032Z,68.73
2022-10-23T18:34:07.746Z,69.45
2022-10-23T18:37:10.490Z,69.05
2022-10-23T18:40:13.886Z,69.21
2022-10-23T18:43:31.410Z,68.91
2022-10-23T18:46:40.796Z,68.31
2022-10-23T18:49:44.280Z,69.12
2022-10-23T18:52:49.747Z,68.48
2022-10-23T18:55:52.393Z,68.65
2022-10-23T18:58:58.100Z,68.21
2022-10-23T19:02:00.953Z,68.73
2022-10-23T19:05:05.032Z,69.06
2022-10-23T19:08:07.825Z,68.52
2022-10-23T19:11:11.754Z,68.41
2022-10-23T19:14:15.864Z,68.42
2022-10-23T19:17:21.946Z,67.94
2022-10-23T19:20:24.676Z,68.43
2022-10-23T19:23:29.991Z,68.77
2022-10-23T19:26:35.617Z,68.57
2022-10-23T19:29:43.724Z,67.96
2022-10-23T19:32:47.346Z,68.62
2022-10-23T19:35:50.196Z,67.28
2022-10-23T19:38:52.825Z,68.22
2022-10-23T19:41:57.748Z,68.72
2022-10-23T19:45:01.987Z,68.26
2022-10-23T19:48:04.835Z,67.56
2022-10-23T19:51:08.760Z,68.15
2022-10-23T19:54:11.633Z,67.31
2022-10-23T19:57:14.988Z,67.96
2022-10-23T20:00:20.772Z,67.83
2022-10-23T20:03:23.604Z,67.11
2022-10-23T20:06:28.957Z,66.90
2022-10-23T20:09:31.831Z,67.20
2022-10-23T20:12:34.799Z,67.30
2022-10-23T20:15:40.628Z,66.28
2022-10-23T20:18:43.362Z,67.38
2022-10-23T20:21:48.185Z,67.08
2022-10-23T20:24:51.029Z,66.79
2022-10-23T20:27:53.744Z,67.38
2022-10-23T20:30:57.683Z,66.93
2022-10-23T20:34:00.833Z,67.20
2022-10-23T20:37:03.640Z,67.67
2022-10-23T20:40:07.283Z,67.58
2022-10-23T20:43:09.980Z,68.21
2022-10-23T20:46:14.072Z,67.27
2022-10-23T20:49:17.826Z,67.43
2022-10-23T20:52:22.064Z,67.50
2022-10-23T20:55:24.961Z,67.50
2022-10-23T20:58:27.744Z,67.76
2022-10-23T21:01:32.775Z,67.77
2022-10-23T21:04:35.612Z,67.16
2022-10-23T21:07:38.348Z,67.61
2022-10-23T21:10:46.987Z,67.98
2022-10-23T21:13:49.711Z,67.78
2022-10-23T21:16:53.812Z,67.88
2022-10-23T21:19:56.558Z,67.98
2022-10-23T21:22:59.241Z,68.69
2022-10-23T21:26:06.211Z,68.58
2022-10-23T21:29:19.755Z,68.34
2022-10-23T21:32:24.718Z,67.95
2022-10-23T21:35:30.138Z,68.22
2022-10-23T21:38:33.242Z,68.91
2022-10-23T21:41:35.840Z,68.76
2022-10-23T21:44:38.658Z,68.47
2022-10-23T21:47:42.976Z,68.01
2022-10-23T21:50:46.037Z,68.17
2022-10-23T21:53:48.935Z,68.10
2022-10-23T21:56:59.589Z,67.87
2022-10-23T22:00:02.456Z,67.80
2022-10-23T22:03:06.431Z,68.04
2022-10-23T22:06:10.939Z,67.81
2022-10-23T22:09:16.033Z,68.10
2022-10-23T22:12:18.643Z,68.12
2022-10-23T22:15:21.437Z,67.29
2022-10-23T22:18:25.713Z,67.77
2022-10-23T22:21:30.824Z,67.07
2022-10-23T22:24:33.682Z,67.27
2022-10-23T22:27:38.062Z,66.67
2022-10-23T22:30:40.775Z,66.46
2022-10-23T22:33:44.933Z,66.11
2022-10-23T22:36:47.784Z,67.16
2022-10-23T22:39:52.183Z,67.22
2022-10-23T22:42:54.849Z,67.64
2022-10-23T22:46:03.362Z,68.11
2022-10-23T22:49:07.537Z,69.60
2022-10-23T22:52:10.309Z,69.67
2022-10-23T22:55:13.094Z,70.87
2022-10-23T22:58:15.751Z,71.56
2022-10-23T23:01:20.795Z,71.89
2022-10-23T23:04:40.023Z,72.30
2022-10-23T23:07:42.965Z,73.37
2022-10-23T23:10:55.583Z,73.57
2022-10-23T23:13:58.330Z,74.77
2022-10-23T23:17:01.044Z,75.21
2022-10-23T23:20:05.712Z,76.19
2022-10-23T23:23:08.484Z,77.75
2022-10-23T23:26:11.362Z,78.68
2022-10-23T23:29:13.988Z,79.55
2022-10-23T23:32:16.536Z,78.54
2022-10-23T23:35:21.165Z,79.52
2022-10-23T23:38:23.934Z,80.05
2022-10-23T23:41:28.652Z,80.47
2022-10-23T23:44:31.465Z,80.79
2022-10-23T23:47:34.107Z,80.08
2022-10-23T23:50:38.226Z,80.34
2022-10-23T23:53:41.026Z,80.68
2022-10-23T23:56:43.597Z,81.65
2022-10-23T23:59:46.312Z,81.63
